• Join FlightAware (Why Join?)
  • Login
  • US Flag 
12:07AM EDT


 

Airport Tracker/Info


-or-


 

Live Flight TrackerFlight Track Log ✈ CTL13 ✈ 03-Jul-2013 ✈ KEYE - KMDW

Flight Track Log - Related Links

Times and Time Zones

All times are in EDT time to prevent confusion due to time zone crossing. See the CTL13 flight status page for this flight to view local times or setup timezone preferences in your user account.

Time Position Orientation Groundspeed Altitude Reporting Facility
EDT Latitude Longitude Course Direction KTS MPH feet Rate Location/Type
08:20PM 39.8667 -86.2833 340° North 138 159 1,500  Level Indianapolis TRACON
08:22PM 39.9072 -86.3031 340° North 165 190 2,100 540 Climbing Indianapolis Center
08:23PM 39.9403 -86.3408 319° Northwest 161 185 2,700 480 Climbing Indianapolis Center
08:24PM 39.9725 -86.3817 316° Northwest 161 185 3,200 480 Climbing Indianapolis Center
08:25PM 40.0081 -86.4214 319° Northwest 164 189 3,800 540 Climbing Indianapolis Center
08:26PM 40.0408 -86.4611 317° Northwest 165 190 4,400 600 Climbing Indianapolis Center
08:27PM 40.0747 -86.5006 318° Northwest 164 189 5,100 540 Climbing Indianapolis Center
08:28PM 40.1158 -86.5489 318° Northwest 165 190 5,600 420 Climbing Indianapolis Center
08:29PM 40.1503 -86.5894 318° Northwest 166 191 6,000 180 Climbing Indianapolis Center
08:30PM 40.1881 -86.6328 319° Northwest 172 198 6,000  Level Indianapolis Center
08:31PM 40.2203 -86.6731 316° Northwest 184 212 6,000  Level Chicago Center
08:32PM 40.2583 -86.7189 317° Northwest 182 209 6,000  Level Chicago Center
08:33PM 40.2964 -86.7622 319° Northwest 183 211 6,000  Level Chicago Center
08:34PM 40.3342 -86.8108 316° Northwest 184 212 6,000  Level Chicago Center
08:35PM 40.3761 -86.8600 318° Northwest 187 215 6,000  Level Chicago Center
08:36PM 40.4122 -86.9033 318° Northwest 187 215 6,000  Level Chicago Center
08:37PM 40.4542 -86.9525 318° Northwest 188 216 6,000  Level Chicago Center
08:38PM 40.4900 -86.9961 317° Northwest 185 213 6,000  Level Chicago Center
08:39PM 40.5297 -87.0425 318° Northwest 186 214 6,000  Level Chicago Center
08:39PM 40.5478 -87.0594 325° Northwest 186 214 6,000  Level Chicago Center
08:40PM 40.5722 -87.0783 330° Northwest 187 215 6,000  Level Chicago Center
08:40PM 40.5928 -87.0903 336° Northwest 187 215 6,000  Level Chicago Center
08:41PM 40.6447 -87.1203 336° Northwest 190 219 6,000  Level Chicago Center
08:42PM 40.6933 -87.1450 339° North 187 215 6,000  Level Chicago Center
08:43PM 40.7428 -87.1694 339° North 190 219 6,000  Level Chicago Center
08:44PM 40.8011 -87.1997 339° North 190 219 6,000  Level Chicago Center
08:45PM 40.8511 -87.2233 340° North 192 221 6,000  Level Chicago Center
08:46PM 40.8992 -87.2478 339° North 187 215 6,000  Level Chicago Center
08:47PM 40.9481 -87.2744 338° Northwest 190 219 6,000  Level Chicago Center
08:49PM 40.9964 -87.2992 339° North 189 217 6,000  Level Chicago Center
08:50PM 41.0539 -87.3297 338° Northwest 187 215 6,000  Level Chicago Center
08:51PM 41.1028 -87.3561 338° Northwest 188 216 6,000 -240 Level Chicago Center
08:52PM 41.1519 -87.3822 338° Northwest 190 219 5,600 -540 Descending Chicago Center
08:53PM 41.2044 -87.4092 339° North 198 228 5,000 -600 Descending Chicago Center
08:54PM 41.2586 -87.4361 339° North 206 237 4,400 -540 Descending Chicago Center
08:55PM 41.3225 -87.4708 338° Northwest 208 239 4,000 -240 Descending Chicago Center
08:56PM 41.3708 -87.4981 337° Northwest 202 232 4,000  Level Chicago Center
08:57PM 41.4175 -87.5242 337° Northwest 192 221 4,000 -300 Level Chicago Center
08:58PM 41.4722 -87.5283 357° North 199 229 3,400 -540 Descending Chicago Center
08:59PM 41.5228 -87.5061 18° North 200 230 3,000 -240 Descending Chicago Center
09:00PM 41.5800 -87.5031 North 200 230 3,000  Level Chicago Center
09:01PM 41.6264 -87.5283 338° Northwest 188 216 3,000  Level Chicago Center
09:02PM 41.6597 -87.5753 314° West 181 208 3,000 -300 Level Chicago Center
09:03PM 41.6939 -87.6233 314° West 179 206 2,500 -540 Descending Chicago Center
09:04PM 41.7317 -87.6781 313° West 175 201 2,000 -600 Descending Chicago Center
09:05PM 41.7617 -87.7239 311° West 170 196 1,300 -420 Descending Chicago Center
09:06PM 41.7900 -87.7664 312° West 168 193 1,200 -120 Descending Chicago Center